createdAt,value
2022-09-24T00:02:24.503Z,81.20
2022-09-24T00:04:51.100Z,81.41
2022-09-24T00:07:17.656Z,81.69
2022-09-24T00:09:44.261Z,81.61
2022-09-24T00:12:13.355Z,81.38
2022-09-24T00:14:40.110Z,80.87
2022-09-24T00:17:06.657Z,80.85
2022-09-24T00:19:33.252Z,80.81
2022-09-24T00:21:59.863Z,81.01
2022-09-24T00:24:45.069Z,80.92
2022-09-24T00:27:11.711Z,81.44
2022-09-24T00:29:38.306Z,81.36
2022-09-24T00:32:05.268Z,81.00
2022-09-24T00:34:31.850Z,81.16
2022-09-24T00:36:59.268Z,81.54
2022-09-24T00:39:25.857Z,81.55
2022-09-24T00:41:52.410Z,81.03
2022-09-24T00:44:40.947Z,81.37
2022-09-24T00:47:16.656Z,81.40
2022-09-24T00:49:43.287Z,81.18
2022-09-24T00:52:09.924Z,81.83
2022-09-24T00:54:37.377Z,81.47
2022-09-24T00:57:04.173Z,81.49
2022-09-24T00:59:30.777Z,81.49
2022-09-24T01:01:59.385Z,81.91
2022-09-24T01:04:27.206Z,81.61
2022-09-24T01:06:53.780Z,81.85
2022-09-24T01:09:20.424Z,81.85
2022-09-24T01:11:49.921Z,82.03
2022-09-24T01:14:54.619Z,81.41
2022-09-24T01:17:49.798Z,81.63
2022-09-24T01:21:06.312Z,81.70
2022-09-24T01:23:49.230Z,81.75
2022-09-24T01:26:22.002Z,81.55
2022-09-24T01:29:02.709Z,81.87
2022-09-24T01:31:32.170Z,81.94
2022-09-24T01:33:59.683Z,82.48
2022-09-24T01:36:26.246Z,82.04
2022-09-24T01:38:52.848Z,82.37
2022-09-24T01:41:19.452Z,82.26
2022-09-24T01:43:46.025Z,81.90
2022-09-24T01:46:13.059Z,82.17
2022-09-24T01:48:40.256Z,82.07
2022-09-24T01:51:23.618Z,81.77
2022-09-24T01:53:53.835Z,82.13
2022-09-24T01:56:35.234Z,81.89
2022-09-24T01:59:10.343Z,81.94
2022-09-24T02:01:40.826Z,81.75
2022-09-24T02:04:12.390Z,81.73
2022-09-24T02:07:04.731Z,82.10
2022-09-24T02:09:43.007Z,81.49
2022-09-24T02:12:20.993Z,81.78
2022-09-24T02:14:54.426Z,81.55
2022-09-24T02:17:24.665Z,81.87
2022-09-24T02:19:51.271Z,82.13
2022-09-24T02:22:17.855Z,82.05
2022-09-24T02:24:44.427Z,82.47
2022-09-24T02:27:10.982Z,81.87
2022-09-24T02:29:37.543Z,81.61
2022-09-24T02:32:04.130Z,81.75
2022-09-24T02:34:36.938Z,82.25
2022-09-24T02:37:08.866Z,81.58
2022-09-24T02:39:36.320Z,81.61
2022-09-24T02:42:05.604Z,81.59
2022-09-24T02:44:33.017Z,81.87
2022-09-24T02:46:59.899Z,81.75
2022-09-24T02:49:26.643Z,81.98
2022-09-24T02:51:53.241Z,81.98
2022-09-24T02:54:19.944Z,81.81
2022-09-24T02:56:46.501Z,81.98
2022-09-24T02:59:13.091Z,81.70
2022-09-24T03:01:39.792Z,81.88
2022-09-24T03:04:06.813Z,81.48
2022-09-24T03:06:33.489Z,81.30
2022-09-24T03:09:03.398Z,81.26
2022-09-24T03:11:31.481Z,81.32
2022-09-24T03:13:58.099Z,81.72
2022-09-24T03:16:24.784Z,81.25
2022-09-24T03:18:51.405Z,81.16
2022-09-24T03:21:19.800Z,81.22
2022-09-24T03:23:46.647Z,81.62
2022-09-24T03:26:13.211Z,81.26
2022-09-24T03:28:39.796Z,81.12
2022-09-24T03:31:06.518Z,81.61
2022-09-24T03:33:37.878Z,81.45
2022-09-24T03:36:08.253Z,81.44
2022-09-24T03:38:35.181Z,81.56
2022-09-24T03:41:02.030Z,81.20
2022-09-24T03:43:28.756Z,81.52
2022-09-24T03:45:55.442Z,81.52
2022-09-24T03:48:22.547Z,81.15
2022-09-24T03:50:49.369Z,81.23
2022-09-24T03:53:16.345Z,80.70
2022-09-24T03:55:47.202Z,80.75
2022-09-24T03:58:14.913Z,80.42
2022-09-24T04:00:42.364Z,80.84
2022-09-24T04:03:09.160Z,80.78
2022-09-24T04:05:36.174Z,80.44
2022-09-24T04:08:03.075Z,81.10
2022-09-24T04:10:29.761Z,81.26
2022-09-24T04:12:56.370Z,81.26
2022-09-24T04:15:23.467Z,81.18
2022-09-24T04:17:51.695Z,81.29
2022-09-24T04:20:22.311Z,81.70
2022-09-24T04:22:53.894Z,81.26
2022-09-24T04:25:20.784Z,81.32
2022-09-24T04:27:47.574Z,81.33
2022-09-24T04:30:14.545Z,81.86
2022-09-24T04:32:41.571Z,81.30
2022-09-24T04:35:08.753Z,81.84
2022-09-24T04:37:35.576Z,81.56
2022-09-24T04:40:03.755Z,81.58
2022-09-24T04:42:30.394Z,81.74
2022-09-24T04:44:56.967Z,82.06
2022-09-24T04:47:26.338Z,81.69
2022-09-24T04:49:53.012Z,81.84
2022-09-24T04:52:19.590Z,81.77
2022-09-24T04:54:47.297Z,81.76
2022-09-24T04:57:14.765Z,81.64
2022-09-24T04:59:41.673Z,82.19
2022-09-24T05:02:09.780Z,82.02
2022-09-24T05:04:37.368Z,82.00
2022-09-24T05:07:04.372Z,81.87
2022-09-24T05:09:33.757Z,81.97
2022-09-24T05:12:00.378Z,81.69
2022-09-24T05:14:27.045Z,81.57
2022-09-24T05:16:53.813Z,81.93
2022-09-24T05:19:21.175Z,81.70
2022-09-24T05:21:47.797Z,81.71
2022-09-24T05:24:14.394Z,82.06
2022-09-24T05:26:59.558Z,81.84
2022-09-24T05:29:26.219Z,81.56
2022-09-24T05:31:52.878Z,81.44
2022-09-24T05:34:19.544Z,82.22
2022-09-24T05:36:46.167Z,82.08
2022-09-24T05:39:15.537Z,82.07
2022-09-24T05:41:43.592Z,82.17
2022-09-24T05:44:11.301Z,81.47
2022-09-24T05:46:38.310Z,81.52
2022-09-24T05:49:05.039Z,81.65
2022-09-24T05:51:31.673Z,82.01
2022-09-24T05:53:58.262Z,81.81
2022-09-24T05:56:24.903Z,82.14
2022-09-24T05:58:51.503Z,81.89
2022-09-24T06:01:18.216Z,81.38
2022-09-24T06:03:44.815Z,81.38
2022-09-24T06:06:12.123Z,81.17
2022-09-24T06:08:38.795Z,81.44
2022-09-24T06:11:06.654Z,81.39
2022-09-24T06:13:35.037Z,81.57
2022-09-24T06:16:07.518Z,81.38
2022-09-24T06:18:35.167Z,81.09
2022-09-24T06:21:03.776Z,81.21
2022-09-24T06:23:31.061Z,81.02
2022-09-24T06:25:58.252Z,81.06
2022-09-24T06:28:27.554Z,80.57
2022-09-24T06:30:54.301Z,80.74
2022-09-24T06:33:21.165Z,80.32
2022-09-24T06:35:48.453Z,79.99
2022-09-24T06:38:16.376Z,80.13
2022-09-24T06:40:43.730Z,79.54
2022-09-24T06:43:10.876Z,79.20
2022-09-24T06:45:37.541Z,79.13
2022-09-24T06:48:04.821Z,79.59
2022-09-24T06:50:32.219Z,78.99
2022-09-24T06:52:58.803Z,79.06
2022-09-24T06:55:25.441Z,78.87
2022-09-24T06:58:04.882Z,78.82
2022-09-24T07:00:31.674Z,79.12
2022-09-24T07:02:58.283Z,79.14
2022-09-24T07:05:24.983Z,78.92
2022-09-24T07:07:51.626Z,79.43
2022-09-24T07:10:25.810Z,79.54
2022-09-24T07:12:52.415Z,78.93
2022-09-24T07:15:19.022Z,78.55
2022-09-24T07:17:45.707Z,78.03
2022-09-24T07:20:12.407Z,76.72
2022-09-24T07:22:43.118Z,77.25
2022-09-24T07:25:15.020Z,76.57
2022-09-24T07:28:28.454Z,75.58
2022-09-24T07:30:59.548Z,75.76
2022-09-24T07:33:26.293Z,75.69
2022-09-24T07:35:52.847Z,75.75
2022-09-24T07:38:20.012Z,76.22
2022-09-24T07:40:46.670Z,76.04
2022-09-24T07:43:14.307Z,76.39
2022-09-24T07:45:41.584Z,76.41
2022-09-24T07:48:09.048Z,77.57
2022-09-24T07:50:40.341Z,79.44
2022-09-24T07:53:06.983Z,78.38
2022-09-24T07:55:39.437Z,78.61
2022-09-24T07:58:22.358Z,79.14
2022-09-24T08:00:49.087Z,78.92
2022-09-24T08:03:15.659Z,78.42
2022-09-24T08:05:45.335Z,76.90
2022-09-24T08:08:12.104Z,75.51
2022-09-24T08:10:38.669Z,72.41
2022-09-24T08:13:05.255Z,69.77
2022-09-24T08:15:31.842Z,68.15
2022-09-24T08:18:04.780Z,63.65
2022-09-24T08:20:32.450Z,62.55
2022-09-24T08:23:03.142Z,61.88
2022-09-24T08:25:29.846Z,60.32
2022-09-24T08:27:56.557Z,60.38
2022-09-24T08:30:23.151Z,58.49
2022-09-24T08:32:49.878Z,58.99
2022-09-24T08:35:16.744Z,59.93
2022-09-24T08:37:43.374Z,60.26
2022-09-24T08:40:23.916Z,59.69
2022-09-24T08:43:12.336Z,59.29
2022-09-24T08:46:05.558Z,59.82
2022-09-24T08:48:34.425Z,58.88
2022-09-24T08:51:03.377Z,57.67
2022-09-24T08:53:42.680Z,57.81
2022-09-24T08:56:09.275Z,55.03
2022-09-24T08:58:44.941Z,57.15
2022-09-24T09:01:11.514Z,54.99
2022-09-24T09:04:05.107Z,53.99
2022-09-24T09:06:43.903Z,51.54
2022-09-24T09:09:18.308Z,51.68
2022-09-24T09:11:47.799Z,53.89
2022-09-24T09:14:18.709Z,54.13
2022-09-24T09:16:57.571Z,53.97
2022-09-24T09:19:26.842Z,53.92
2022-09-24T09:21:57.028Z,54.61
2022-09-24T09:25:03.506Z,54.74
2022-09-24T09:27:31.004Z,55.41
2022-09-24T09:29:59.210Z,53.97
2022-09-24T09:33:03.312Z,54.33
2022-09-24T09:35:43.292Z,51.75
2022-09-24T09:38:12.964Z,53.69
2022-09-24T09:40:44.095Z,53.55
2022-09-24T09:43:12.773Z,53.83
2022-09-24T09:45:56.316Z,53.62
2022-09-24T09:48:24.241Z,52.75
2022-09-24T09:50:51.398Z,52.37
2022-09-24T09:53:25.018Z,53.24
2022-09-24T09:55:56.063Z,53.53
2022-09-24T09:58:24.587Z,51.73
2022-09-24T10:00:51.217Z,50.63
2022-09-24T10:03:26.199Z,50.01
2022-09-24T10:05:58.592Z,50.55
2022-09-24T10:08:26.492Z,51.85
2022-09-24T10:10:57.458Z,51.50
2022-09-24T10:13:24.351Z,53.25
2022-09-24T10:15:51.698Z,52.66
2022-09-24T10:18:23.051Z,53.04
2022-09-24T10:20:49.895Z,53.35
2022-09-24T10:23:21.188Z,52.95
2022-09-24T10:25:52.379Z,52.81
2022-09-24T10:28:38.365Z,52.22
2022-09-24T10:31:12.518Z,51.90
2022-09-24T10:33:40.503Z,50.56
2022-09-24T10:36:13.525Z,48.46
2022-09-24T10:38:40.094Z,49.40
2022-09-24T10:41:27.590Z,47.79
2022-09-24T10:43:54.950Z,49.82
2022-09-24T10:46:28.690Z,49.07
2022-09-24T10:49:46.449Z,47.82
2022-09-24T10:52:30.450Z,47.57
2022-09-24T10:55:15.850Z,48.25
2022-09-24T10:58:03.018Z,47.67
2022-09-24T11:00:41.193Z,48.47
2022-09-24T11:03:26.085Z,50.27
2022-09-24T11:05:54.025Z,51.71
2022-09-24T11:08:52.905Z,49.96
2022-09-24T11:11:31.947Z,50.38
2022-09-24T11:14:20.913Z,50.39
2022-09-24T11:17:03.254Z,50.08
2022-09-24T11:19:36.707Z,49.42
2022-09-24T11:22:42.219Z,48.50
2022-09-24T11:25:24.545Z,49.40
2022-09-24T11:28:13.321Z,49.09
2022-09-24T11:31:13.916Z,50.00
2022-09-24T11:33:43.583Z,49.57
2022-09-24T11:36:22.320Z,50.37
2022-09-24T11:38:48.797Z,49.41
2022-09-24T11:41:53.041Z,49.67
2022-09-24T11:44:32.998Z,50.96
2022-09-24T11:47:27.459Z,50.43
2022-09-24T11:50:33.573Z,52.02
2022-09-24T11:53:03.015Z,51.62
2022-09-24T11:55:34.995Z,52.20
2022-09-24T11:58:18.131Z,50.58
2022-09-24T12:00:49.510Z,53.35
2022-09-24T12:04:05.471Z,52.61
2022-09-24T12:06:35.866Z,51.46
2022-09-24T12:09:39.852Z,51.10
2022-09-24T12:12:09.112Z,50.79
2022-09-24T12:15:01.597Z,50.92
2022-09-24T12:17:49.128Z,50.44
2022-09-24T12:20:45.265Z,50.37
2022-09-24T12:23:13.400Z,47.24
2022-09-24T12:25:45.299Z,50.47
2022-09-24T12:28:35.755Z,49.54
2022-09-24T12:31:21.751Z,49.38
2022-09-24T12:34:01.618Z,48.72
2022-09-24T12:36:31.126Z,49.03
2022-09-24T12:39:02.705Z,48.46
2022-09-24T12:41:33.103Z,50.35
2022-09-24T12:44:11.805Z,47.67
2022-09-24T12:46:43.076Z,49.91
2022-09-24T12:49:24.947Z,48.55
2022-09-24T12:51:59.627Z,47.66
2022-09-24T12:54:36.759Z,47.83
2022-09-24T12:57:26.424Z,47.78
2022-09-24T12:59:56.966Z,47.84
2022-09-24T13:02:33.552Z,47.79
2022-09-24T13:05:03.562Z,47.90
2022-09-24T13:07:37.217Z,48.29
2022-09-24T13:10:17.343Z,48.61
2022-09-24T13:12:44.782Z,47.86
2022-09-24T13:15:28.143Z,47.75
2022-09-24T13:18:07.017Z,49.34
2022-09-24T13:20:33.639Z,50.04
2022-09-24T13:23:31.523Z,50.68
2022-09-24T13:25:59.234Z,50.30
2022-09-24T13:28:37.815Z,49.52
2022-09-24T13:31:25.958Z,50.85
2022-09-24T13:34:18.946Z,50.68
2022-09-24T13:37:04.477Z,49.97
2022-09-24T13:39:35.914Z,50.88
2022-09-24T13:42:33.235Z,49.97
2022-09-24T13:45:03.326Z,50.25
2022-09-24T13:47:43.723Z,50.30
2022-09-24T13:50:16.729Z,52.61
2022-09-24T13:52:53.724Z,52.03
2022-09-24T13:55:34.901Z,52.12
2022-09-24T13:58:01.477Z,52.85
2022-09-24T14:00:29.286Z,51.10
2022-09-24T14:03:03.550Z,52.78
2022-09-24T14:05:39.328Z,52.46
2022-09-24T14:08:12.430Z,53.23
2022-09-24T14:10:40.060Z,52.63
2022-09-24T14:13:21.801Z,54.88
2022-09-24T14:15:58.610Z,53.23
2022-09-24T14:18:26.668Z,52.88
2022-09-24T14:20:57.741Z,52.90
2022-09-24T14:23:25.099Z,54.28
2022-09-24T14:25:51.693Z,52.84
2022-09-24T14:28:18.293Z,53.83
2022-09-24T14:31:03.080Z,53.71
2022-09-24T14:33:31.230Z,53.85
2022-09-24T14:35:57.985Z,54.93
2022-09-24T14:38:35.340Z,53.93
2022-09-24T14:41:16.058Z,53.36
2022-09-24T14:43:53.807Z,53.68
2022-09-24T14:46:27.961Z,54.14
2022-09-24T14:49:27.745Z,52.98
2022-09-24T14:52:04.187Z,54.06
2022-09-24T14:54:38.117Z,53.59
2022-09-24T14:57:19.880Z,53.78
2022-09-24T14:59:46.777Z,54.23
2022-09-24T15:02:29.711Z,54.50
2022-09-24T15:05:03.251Z,54.20
2022-09-24T15:07:32.595Z,54.17
2022-09-24T15:10:00.020Z,54.01
2022-09-24T15:12:31.093Z,55.17
2022-09-24T15:15:00.010Z,55.46
2022-09-24T15:17:34.191Z,55.18
2022-09-24T15:20:01.146Z,55.76
2022-09-24T15:22:28.981Z,55.49
2022-09-24T15:25:01.161Z,55.78
2022-09-24T15:27:31.203Z,56.33
2022-09-24T15:30:01.276Z,55.92
2022-09-24T15:32:29.148Z,56.23
2022-09-24T15:34:57.790Z,56.65
2022-09-24T15:37:25.860Z,56.96
2022-09-24T15:39:53.334Z,56.69
2022-09-24T15:42:21.608Z,57.60
2022-09-24T15:44:48.201Z,56.81
2022-09-24T15:47:18.927Z,57.56
2022-09-24T15:49:45.590Z,58.81
2022-09-24T15:52:24.207Z,58.39
2022-09-24T15:54:51.726Z,56.45
2022-09-24T15:57:18.436Z,56.12
2022-09-24T15:59:45.038Z,56.81
2022-09-24T16:02:32.632Z,56.63
2022-09-24T16:05:03.545Z,56.06
2022-09-24T16:07:30.618Z,56.55
2022-09-24T16:09:57.236Z,56.87
2022-09-24T16:12:28.030Z,56.93
2022-09-24T16:14:58.995Z,56.87
2022-09-24T16:17:26.181Z,57.19
2022-09-24T16:19:52.911Z,57.74
2022-09-24T16:22:20.689Z,57.51
2022-09-24T16:24:47.517Z,57.59
2022-09-24T16:27:14.123Z,57.25
2022-09-24T16:29:40.738Z,57.87
2022-09-24T16:32:07.342Z,57.95
2022-09-24T16:34:34.528Z,58.75
2022-09-24T16:37:01.146Z,59.04
2022-09-24T16:39:27.736Z,59.68
2022-09-24T16:41:54.518Z,60.01
2022-09-24T16:44:21.227Z,60.36
2022-09-24T16:46:47.842Z,60.67
2022-09-24T16:49:15.247Z,61.43
2022-09-24T16:51:41.996Z,61.30
2022-09-24T16:54:08.687Z,61.90
2022-09-24T16:56:35.306Z,62.18
2022-09-24T16:59:01.962Z,62.66
2022-09-24T17:01:28.677Z,62.75
2022-09-24T17:03:56.183Z,63.18
2022-09-24T17:06:24.469Z,64.30
2022-09-24T17:09:11.481Z,64.44
2022-09-24T17:11:40.241Z,64.64
2022-09-24T17:14:07.985Z,65.18
2022-09-24T17:16:39.289Z,65.01
2022-09-24T17:19:08.007Z,65.36
2022-09-24T17:21:35.473Z,65.48
2022-09-24T17:24:02.338Z,66.20
2022-09-24T17:26:28.970Z,67.11
2022-09-24T17:28:55.749Z,67.43
2022-09-24T17:31:23.658Z,68.82
2022-09-24T17:34:01.317Z,68.97
2022-09-24T17:36:28.993Z,69.03
2022-09-24T17:38:56.603Z,69.26
2022-09-24T17:41:23.469Z,69.55
2022-09-24T17:43:50.043Z,69.69
2022-09-24T17:46:18.380Z,70.51
2022-09-24T17:48:46.067Z,70.46
2022-09-24T17:51:23.456Z,70.75
2022-09-24T17:53:51.380Z,70.09
2022-09-24T17:56:18.127Z,70.83
2022-09-24T17:58:46.931Z,71.29
2022-09-24T18:01:24.658Z,71.67
2022-09-24T18:03:55.282Z,71.74
2022-09-24T18:06:22.158Z,71.58
2022-09-24T18:08:48.755Z,72.45
2022-09-24T18:11:20.124Z,72.28
2022-09-24T18:13:53.114Z,72.72
2022-09-24T18:16:20.535Z,72.26
2022-09-24T18:18:49.217Z,73.30
2022-09-24T18:21:16.483Z,73.10
2022-09-24T18:23:43.078Z,73.38
2022-09-24T18:26:16.933Z,73.57
2022-09-24T18:28:49.520Z,73.14
2022-09-24T18:31:16.559Z,73.57
2022-09-24T18:33:43.915Z,73.61
2022-09-24T18:36:14.467Z,73.65
2022-09-24T18:38:41.123Z,73.82
2022-09-24T18:41:15.599Z,73.99
2022-09-24T18:43:42.273Z,74.26
2022-09-24T18:46:11.348Z,74.32
2022-09-24T18:48:38.870Z,74.00
2022-09-24T18:51:05.664Z,74.28
2022-09-24T18:53:32.277Z,74.38
2022-09-24T18:55:59.515Z,74.64
2022-09-24T18:58:26.147Z,74.53
2022-09-24T19:01:19.317Z,74.67
2022-09-24T19:03:46.020Z,75.33
2022-09-24T19:06:13.149Z,75.40
2022-09-24T19:08:40.042Z,76.24
2022-09-24T19:11:09.919Z,76.34
2022-09-24T19:13:51.656Z,76.18
2022-09-24T19:16:18.946Z,75.91
2022-09-24T19:18:45.655Z,75.98
2022-09-24T19:21:14.074Z,77.04
2022-09-24T19:23:46.185Z,76.60
2022-09-24T19:26:14.447Z,76.50
2022-09-24T19:28:41.323Z,76.30
2022-09-24T19:31:25.020Z,76.34
2022-09-24T19:33:52.352Z,76.31
2022-09-24T19:36:18.990Z,76.24
2022-09-24T19:38:45.740Z,76.35
2022-09-24T19:41:13.535Z,76.34
2022-09-24T19:43:41.053Z,76.93
2022-09-24T19:46:08.663Z,77.06
2022-09-24T19:48:43.259Z,76.42
2022-09-24T19:51:20.306Z,76.57
2022-09-24T19:53:51.315Z,76.63
2022-09-24T19:56:19.607Z,76.28
2022-09-24T19:58:47.150Z,76.69
2022-09-24T20:01:17.375Z,76.18
2022-09-24T20:03:44.508Z,76.66
2022-09-24T20:06:16.148Z,76.60
2022-09-24T20:08:42.847Z,76.98
2022-09-24T20:11:11.415Z,76.74
2022-09-24T20:13:46.406Z,77.16
2022-09-24T20:16:20.257Z,77.03
2022-09-24T20:18:47.843Z,77.00
2022-09-24T20:21:16.285Z,76.90
2022-09-24T20:23:43.236Z,77.45
2022-09-24T20:26:29.338Z,77.16
2022-09-24T20:28:56.255Z,77.78
2022-09-24T20:31:22.917Z,77.41
2022-09-24T20:33:49.632Z,77.36
2022-09-24T20:36:20.729Z,77.71
2022-09-24T20:38:49.955Z,77.06
2022-09-24T20:41:18.120Z,76.98
2022-09-24T20:43:45.631Z,76.62
2022-09-24T20:46:17.439Z,76.98
2022-09-24T20:48:44.169Z,76.48
2022-09-24T20:51:14.591Z,76.86
2022-09-24T20:53:41.957Z,76.73
2022-09-24T20:56:09.351Z,76.54
2022-09-24T20:58:41.869Z,76.92
2022-09-24T21:01:09.238Z,77.50
2022-09-24T21:03:45.295Z,77.36
2022-09-24T21:06:12.565Z,77.63
2022-09-24T21:08:40.420Z,78.12
2022-09-24T21:11:11.769Z,78.10
2022-09-24T21:13:50.340Z,77.47
2022-09-24T21:16:24.720Z,78.10
2022-09-24T21:18:54.274Z,78.34
2022-09-24T21:21:22.669Z,78.84
2022-09-24T21:23:50.677Z,78.51
2022-09-24T21:26:37.832Z,78.76
2022-09-24T21:29:07.685Z,78.92
2022-09-24T21:31:34.538Z,78.83
2022-09-24T21:34:01.301Z,79.13
2022-09-24T21:36:29.460Z,79.19
2022-09-24T21:38:56.838Z,79.21
2022-09-24T21:41:24.779Z,79.17
2022-09-24T21:43:52.379Z,79.42
2022-09-24T21:46:33.284Z,79.04
2022-09-24T21:49:00.564Z,79.70
2022-09-24T21:51:27.478Z,79.46
2022-09-24T21:53:58.303Z,79.45
2022-09-24T21:56:25.044Z,79.69
2022-09-24T21:58:52.514Z,80.05
2022-09-24T22:01:21.011Z,79.52
2022-09-24T22:03:47.726Z,79.53
2022-09-24T22:06:15.109Z,79.82
2022-09-24T22:08:41.774Z,79.59
2022-09-24T22:11:08.932Z,80.13
2022-09-24T22:13:46.162Z,79.89
2022-09-24T22:16:15.491Z,79.71
2022-09-24T22:18:50.116Z,79.62
2022-09-24T22:21:20.196Z,79.31
2022-09-24T22:23:46.798Z,79.76
2022-09-24T22:26:14.765Z,79.81
2022-09-24T22:28:41.974Z,79.97
2022-09-24T22:31:10.089Z,79.62
2022-09-24T22:33:55.295Z,80.08
2022-09-24T22:36:22.052Z,79.73
2022-09-24T22:38:53.646Z,79.96
2022-09-24T22:41:20.251Z,80.15
2022-09-24T22:43:46.835Z,80.00
2022-09-24T22:46:14.190Z,80.50
2022-09-24T22:48:40.832Z,80.58
2022-09-24T22:51:07.564Z,80.28
2022-09-24T22:53:35.175Z,80.28
2022-09-24T22:56:08.290Z,80.46
2022-09-24T22:58:35.313Z,80.08
2022-09-24T23:01:09.640Z,80.80
2022-09-24T23:03:36.787Z,80.48
2022-09-24T23:06:06.217Z,80.71
2022-09-24T23:08:33.957Z,80.72
2022-09-24T23:11:19.511Z,80.62
2022-09-24T23:13:47.771Z,80.31
2022-09-24T23:16:15.051Z,80.17
2022-09-24T23:18:42.825Z,80.53
2022-09-24T23:21:10.854Z,80.17
2022-09-24T23:23:37.506Z,80.06
2022-09-24T23:26:16.190Z,80.48
2022-09-24T23:28:43.498Z,80.31
2022-09-24T23:31:14.581Z,80.26
2022-09-24T23:33:42.158Z,80.44
2022-09-24T23:36:09.945Z,80.52
2022-09-24T23:38:36.679Z,80.39
2022-09-24T23:41:03.713Z,80.19
2022-09-24T23:43:30.766Z,80.51
2022-09-24T23:45:57.475Z,80.66
2022-09-24T23:48:24.182Z,80.66
2022-09-24T23:50:51.288Z,80.08
2022-09-24T23:53:18.989Z,80.24
2022-09-24T23:55:47.074Z,80.31
2022-09-24T23:58:15.955Z,80.80
